sensor_id;sensor_type;location;lat;lon;timestamp;P1;durP1;ratioP1;P2;durP2;ratioP2
12762;SDS011;6445;52.490;13.378;2023-02-28T00:00:33;7.40;;;3.53;;
12762;SDS011;6445;52.490;13.378;2023-02-28T00:03:00;7.45;;;3.30;;
12762;SDS011;6445;52.490;13.378;2023-02-28T00:05:26;7.57;;;3.63;;
12762;SDS011;6445;52.490;13.378;2023-02-28T00:07:52;7.05;;;3.65;;
12762;SDS011;6445;52.490;13.378;2023-02-28T00:10:19;7.13;;;3.67;;
12762;SDS011;6445;52.490;13.378;2023-02-28T00:12:47;5.05;;;3.35;;
12762;SDS011;6445;52.490;13.378;2023-02-28T00:15:16;5.65;;;3.28;;
12762;SDS011;6445;52.490;13.378;2023-02-28T00:17:42;5.38;;;3.50;;
12762;SDS011;6445;52.490;13.378;2023-02-28T00:20:09;8.70;;;3.60;;
12762;SDS011;6445;52.490;13.378;2023-02-28T00:22:40;6.32;;;3.53;;
12762;SDS011;6445;52.490;13.378;2023-02-28T00:25:09;5.80;;;3.53;;
12762;SDS011;6445;52.490;13.378;2023-02-28T00:27:36;6.43;;;3.42;;
12762;SDS011;6445;52.490;13.378;2023-02-28T00:30:03;6.70;;;3.65;;
12762;SDS011;6445;52.490;13.378;2023-02-28T00:32:29;6.43;;;3.55;;
12762;SDS011;6445;52.490;13.378;2023-02-28T00:34:54;5.72;;;3.30;;
12762;SDS011;6445;52.490;13.378;2023-02-28T00:37:20;9.20;;;3.65;;
12762;SDS011;6445;52.490;13.378;2023-02-28T00:39:45;5.85;;;3.92;;
12762;SDS011;6445;52.490;13.378;2023-02-28T00:42:10;7.82;;;3.80;;
12762;SDS011;6445;52.490;13.378;2023-02-28T00:44:35;5.95;;;3.47;;
12762;SDS011;6445;52.490;13.378;2023-02-28T00:47:01;6.53;;;3.70;;
12762;SDS011;6445;52.490;13.378;2023-02-28T00:49:26;6.65;;;4.03;;
12762;SDS011;6445;52.490;13.378;2023-02-28T00:51:52;7.05;;;3.70;;
12762;SDS011;6445;52.490;13.378;2023-02-28T00:54:18;7.63;;;3.72;;
12762;SDS011;6445;52.490;13.378;2023-02-28T00:56:44;7.53;;;4.00;;
12762;SDS011;6445;52.490;13.378;2023-02-28T00:59:10;7.47;;;3.75;;
12762;SDS011;6445;52.490;13.378;2023-02-28T01:01:36;6.22;;;4.07;;
12762;SDS011;6445;52.490;13.378;2023-02-28T01:04:02;7.25;;;3.92;;
12762;SDS011;6445;52.490;13.378;2023-02-28T01:06:28;5.85;;;3.95;;
12762;SDS011;6445;52.490;13.378;2023-02-28T01:08:53;6.15;;;4.03;;
12762;SDS011;6445;52.490;13.378;2023-02-28T01:11:18;8.15;;;3.85;;
12762;SDS011;6445;52.490;13.378;2023-02-28T01:13:44;5.55;;;4.18;;
12762;SDS011;6445;52.490;13.378;2023-02-28T01:16:11;7.47;;;4.05;;
12762;SDS011;6445;52.490;13.378;2023-02-28T01:18:37;5.32;;;3.55;;
12762;SDS011;6445;52.490;13.378;2023-02-28T01:21:03;9.48;;;4.25;;
12762;SDS011;6445;52.490;13.378;2023-02-28T01:23:33;9.27;;;4.45;;
12762;SDS011;6445;52.490;13.378;2023-02-28T01:26:09;5.28;;;3.70;;
12762;SDS011;6445;52.490;13.378;2023-02-28T01:28:36;6.50;;;3.97;;
12762;SDS011;6445;52.490;13.378;2023-02-28T01:31:02;6.97;;;3.97;;
12762;SDS011;6445;52.490;13.378;2023-02-28T01:33:27;4.70;;;3.60;;
12762;SDS011;6445;52.490;13.378;2023-02-28T01:36:00;6.38;;;3.85;;
12762;SDS011;6445;52.490;13.378;2023-02-28T01:38:29;6.28;;;4.40;;
12762;SDS011;6445;52.490;13.378;2023-02-28T01:40:54;7.78;;;3.92;;
12762;SDS011;6445;52.490;13.378;2023-02-28T01:43:25;7.78;;;4.45;;
12762;SDS011;6445;52.490;13.378;2023-02-28T01:45:53;9.98;;;3.83;;
12762;SDS011;6445;52.490;13.378;2023-02-28T01:48:21;6.93;;;4.13;;
12762;SDS011;6445;52.490;13.378;2023-02-28T01:50:51;6.30;;;4.28;;
12762;SDS011;6445;52.490;13.378;2023-02-28T01:53:19;7.25;;;4.03;;
12762;SDS011;6445;52.490;13.378;2023-02-28T01:55:51;7.93;;;4.30;;
12762;SDS011;6445;52.490;13.378;2023-02-28T01:58:18;7.18;;;4.88;;
12762;SDS011;6445;52.490;13.378;2023-02-28T02:00:43;6.95;;;4.18;;
12762;SDS011;6445;52.490;13.378;2023-02-28T02:03:10;10.20;;;4.80;;
12762;SDS011;6445;52.490;13.378;2023-02-28T02:05:37;7.38;;;4.93;;
12762;SDS011;6445;52.490;13.378;2023-02-28T02:08:06;5.93;;;4.30;;
12762;SDS011;6445;52.490;13.378;2023-02-28T02:13:19;8.82;;;5.00;;
12762;SDS011;6445;52.490;13.378;2023-02-28T02:18:48;9.50;;;5.50;;
12762;SDS011;6445;52.490;13.378;2023-02-28T02:21:30;9.18;;;4.80;;
12762;SDS011;6445;52.490;13.378;2023-02-28T02:24:12;8.40;;;4.80;;
12762;SDS011;6445;52.490;13.378;2023-02-28T02:30:05;9.48;;;5.53;;
12762;SDS011;6445;52.490;13.378;2023-02-28T02:35:46;10.40;;;4.38;;
12762;SDS011;6445;52.490;13.378;2023-02-28T02:40:56;8.15;;;4.88;;
12762;SDS011;6445;52.490;13.378;2023-02-28T02:43:25;9.00;;;5.30;;
12762;SDS011;6445;52.490;13.378;2023-02-28T02:46:05;8.52;;;5.20;;
12762;SDS011;6445;52.490;13.378;2023-02-28T02:48:35;7.60;;;4.93;;
12762;SDS011;6445;52.490;13.378;2023-02-28T02:51:03;8.05;;;5.28;;
12762;SDS011;6445;52.490;13.378;2023-02-28T02:53:50;7.30;;;4.90;;
12762;SDS011;6445;52.490;13.378;2023-02-28T02:56:19;8.15;;;5.35;;
12762;SDS011;6445;52.490;13.378;2023-02-28T02:58:49;8.65;;;4.85;;
12762;SDS011;6445;52.490;13.378;2023-02-28T03:01:18;7.78;;;5.13;;
12762;SDS011;6445;52.490;13.378;2023-02-28T03:03:52;9.07;;;5.35;;
12762;SDS011;6445;52.490;13.378;2023-02-28T03:06:20;10.27;;;5.57;;
12762;SDS011;6445;52.490;13.378;2023-02-28T03:08:45;7.47;;;5.00;;
12762;SDS011;6445;52.490;13.378;2023-02-28T03:11:12;8.35;;;5.00;;
12762;SDS011;6445;52.490;13.378;2023-02-28T03:16:42;7.63;;;5.50;;
12762;SDS011;6445;52.490;13.378;2023-02-28T03:19:25;9.93;;;5.57;;
12762;SDS011;6445;52.490;13.378;2023-02-28T03:22:12;8.30;;;5.32;;
12762;SDS011;6445;52.490;13.378;2023-02-28T03:25:03;9.82;;;5.32;;
12762;SDS011;6445;52.490;13.378;2023-02-28T03:27:30;9.38;;;5.22;;
12762;SDS011;6445;52.490;13.378;2023-02-28T03:35:26;9.40;;;5.57;;
12762;SDS011;6445;52.490;13.378;2023-02-28T03:37:58;9.75;;;5.40;;
12762;SDS011;6445;52.490;13.378;2023-02-28T03:40:38;11.85;;;5.93;;
12762;SDS011;6445;52.490;13.378;2023-02-28T03:43:10;8.52;;;5.47;;
12762;SDS011;6445;52.490;13.378;2023-02-28T03:45:40;10.40;;;6.00;;
12762;SDS011;6445;52.490;13.378;2023-02-28T03:48:13;9.40;;;5.85;;
12762;SDS011;6445;52.490;13.378;2023-02-28T03:50:44;9.38;;;5.50;;
12762;SDS011;6445;52.490;13.378;2023-02-28T03:53:14;9.23;;;5.82;;
12762;SDS011;6445;52.490;13.378;2023-02-28T03:56:09;10.70;;;5.82;;
12762;SDS011;6445;52.490;13.378;2023-02-28T03:58:42;8.77;;;5.70;;
12762;SDS011;6445;52.490;13.378;2023-02-28T04:01:41;8.63;;;5.60;;
12762;SDS011;6445;52.490;13.378;2023-02-28T04:04:09;10.90;;;6.03;;
12762;SDS011;6445;52.490;13.378;2023-02-28T04:06:35;7.63;;;5.50;;
12762;SDS011;6445;52.490;13.378;2023-02-28T04:09:02;9.07;;;6.13;;
12762;SDS011;6445;52.490;13.378;2023-02-28T04:11:33;9.05;;;5.90;;
12762;SDS011;6445;52.490;13.378;2023-02-28T04:14:00;9.65;;;5.85;;
12762;SDS011;6445;52.490;13.378;2023-02-28T04:16:27;9.70;;;5.55;;
12762;SDS011;6445;52.490;13.378;2023-02-28T04:18:52;12.05;;;6.10;;
12762;SDS011;6445;52.490;13.378;2023-02-28T04:21:17;10.02;;;5.95;;
12762;SDS011;6445;52.490;13.378;2023-02-28T04:23:45;9.32;;;6.15;;
12762;SDS011;6445;52.490;13.378;2023-02-28T04:26:10;9.82;;;5.75;;
12762;SDS011;6445;52.490;13.378;2023-02-28T04:28:36;11.20;;;5.90;;
12762;SDS011;6445;52.490;13.378;2023-02-28T04:31:03;8.05;;;5.85;;
12762;SDS011;6445;52.490;13.378;2023-02-28T04:33:30;9.25;;;5.97;;
12762;SDS011;6445;52.490;13.378;2023-02-28T04:36:00;8.18;;;5.68;;
12762;SDS011;6445;52.490;13.378;2023-02-28T04:38:27;8.40;;;5.68;;
12762;SDS011;6445;52.490;13.378;2023-02-28T04:40:53;9.90;;;5.57;;
12762;SDS011;6445;52.490;13.378;2023-02-28T04:43:18;10.00;;;6.00;;
12762;SDS011;6445;52.490;13.378;2023-02-28T04:45:43;9.93;;;6.00;;
12762;SDS011;6445;52.490;13.378;2023-02-28T04:48:09;12.13;;;6.43;;
12762;SDS011;6445;52.490;13.378;2023-02-28T04:50:34;7.53;;;6.03;;
12762;SDS011;6445;52.490;13.378;2023-02-28T04:52:59;10.18;;;6.28;;
12762;SDS011;6445;52.490;13.378;2023-02-28T04:55:24;9.52;;;6.15;;
12762;SDS011;6445;52.490;13.378;2023-02-28T04:57:49;9.88;;;6.38;;
12762;SDS011;6445;52.490;13.378;2023-02-28T05:00:15;10.15;;;6.60;;
12762;SDS011;6445;52.490;13.378;2023-02-28T05:02:41;8.93;;;6.50;;
12762;SDS011;6445;52.490;13.378;2023-02-28T05:05:07;12.55;;;7.13;;
12762;SDS011;6445;52.490;13.378;2023-02-28T05:07:32;11.25;;;6.70;;
12762;SDS011;6445;52.490;13.378;2023-02-28T05:09:57;12.68;;;7.47;;
12762;SDS011;6445;52.490;13.378;2023-02-28T05:12:22;11.13;;;6.95;;
12762;SDS011;6445;52.490;13.378;2023-02-28T05:14:48;11.55;;;7.15;;
12762;SDS011;6445;52.490;13.378;2023-02-28T05:17:13;12.07;;;7.28;;
12762;SDS011;6445;52.490;13.378;2023-02-28T05:19:38;11.80;;;7.60;;
12762;SDS011;6445;52.490;13.378;2023-02-28T05:22:03;11.43;;;7.60;;
12762;SDS011;6445;52.490;13.378;2023-02-28T05:24:29;9.80;;;7.13;;
12762;SDS011;6445;52.490;13.378;2023-02-28T05:26:54;14.30;;;7.22;;
12762;SDS011;6445;52.490;13.378;2023-02-28T05:29:19;13.10;;;7.65;;
12762;SDS011;6445;52.490;13.378;2023-02-28T05:31:45;12.00;;;6.95;;
12762;SDS011;6445;52.490;13.378;2023-02-28T05:34:11;10.40;;;7.03;;
12762;SDS011;6445;52.490;13.378;2023-02-28T05:36:37;12.40;;;7.47;;
12762;SDS011;6445;52.490;13.378;2023-02-28T05:39:05;13.75;;;7.07;;
12762;SDS011;6445;52.490;13.378;2023-02-28T05:41:30;12.00;;;6.68;;
12762;SDS011;6445;52.490;13.378;2023-02-28T05:43:56;8.73;;;6.57;;
12762;SDS011;6445;52.490;13.378;2023-02-28T05:46:22;9.90;;;6.65;;
12762;SDS011;6445;52.490;13.378;2023-02-28T05:48:48;11.13;;;6.50;;
12762;SDS011;6445;52.490;13.378;2023-02-28T05:51:14;9.88;;;7.00;;
12762;SDS011;6445;52.490;13.378;2023-02-28T05:53:39;11.55;;;7.07;;
12762;SDS011;6445;52.490;13.378;2023-02-28T05:56:05;12.02;;;6.88;;
12762;SDS011;6445;52.490;13.378;2023-02-28T05:58:30;11.95;;;7.00;;
12762;SDS011;6445;52.490;13.378;2023-02-28T06:00:57;14.82;;;7.82;;
12762;SDS011;6445;52.490;13.378;2023-02-28T06:03:22;12.30;;;7.47;;
12762;SDS011;6445;52.490;13.378;2023-02-28T06:05:48;9.65;;;7.15;;
12762;SDS011;6445;52.490;13.378;2023-02-28T06:08:13;13.23;;;7.20;;
12762;SDS011;6445;52.490;13.378;2023-02-28T06:10:38;12.55;;;7.47;;
12762;SDS011;6445;52.490;13.378;2023-02-28T06:13:04;12.40;;;7.22;;
12762;SDS011;6445;52.490;13.378;2023-02-28T06:15:30;12.00;;;7.03;;
12762;SDS011;6445;52.490;13.378;2023-02-28T06:17:56;10.75;;;7.20;;
12762;SDS011;6445;52.490;13.378;2023-02-28T06:20:21;10.25;;;7.20;;
12762;SDS011;6445;52.490;13.378;2023-02-28T06:22:48;12.60;;;7.88;;
12762;SDS011;6445;52.490;13.378;2023-02-28T06:25:13;8.95;;;6.63;;
12762;SDS011;6445;52.490;13.378;2023-02-28T06:27:38;10.20;;;7.00;;
12762;SDS011;6445;52.490;13.378;2023-02-28T06:30:03;10.80;;;7.25;;
12762;SDS011;6445;52.490;13.378;2023-02-28T06:32:29;18.17;;;8.15;;
12762;SDS011;6445;52.490;13.378;2023-02-28T06:34:54;13.27;;;7.90;;
12762;SDS011;6445;52.490;13.378;2023-02-28T06:37:22;10.98;;;7.25;;
12762;SDS011;6445;52.490;13.378;2023-02-28T06:39:50;12.02;;;7.75;;
12762;SDS011;6445;52.490;13.378;2023-02-28T06:42:15;13.93;;;7.45;;
12762;SDS011;6445;52.490;13.378;2023-02-28T06:44:41;12.45;;;7.05;;
12762;SDS011;6445;52.490;13.378;2023-02-28T06:47:07;10.40;;;7.45;;
12762;SDS011;6445;52.490;13.378;2023-02-28T06:49:34;10.68;;;6.50;;
12762;SDS011;6445;52.490;13.378;2023-02-28T06:52:00;12.57;;;7.10;;
12762;SDS011;6445;52.490;13.378;2023-02-28T06:54:25;10.57;;;6.70;;
12762;SDS011;6445;52.490;13.378;2023-02-28T06:56:52;11.07;;;7.03;;
12762;SDS011;6445;52.490;13.378;2023-02-28T06:59:19;13.45;;;7.30;;
12762;SDS011;6445;52.490;13.378;2023-02-28T07:01:44;14.35;;;7.40;;
12762;SDS011;6445;52.490;13.378;2023-02-28T07:04:09;10.57;;;7.40;;
12762;SDS011;6445;52.490;13.378;2023-02-28T07:06:35;12.70;;;7.72;;
12762;SDS011;6445;52.490;13.378;2023-02-28T07:09:00;14.77;;;7.50;;
12762;SDS011;6445;52.490;13.378;2023-02-28T07:11:26;13.30;;;7.95;;
12762;SDS011;6445;52.490;13.378;2023-02-28T07:13:55;11.13;;;7.60;;
12762;SDS011;6445;52.490;13.378;2023-02-28T07:16:21;11.32;;;7.43;;
12762;SDS011;6445;52.490;13.378;2023-02-28T07:18:48;11.35;;;7.65;;
12762;SDS011;6445;52.490;13.378;2023-02-28T07:21:14;12.38;;;7.65;;
12762;SDS011;6445;52.490;13.378;2023-02-28T07:23:40;13.23;;;7.43;;
12762;SDS011;6445;52.490;13.378;2023-02-28T07:26:07;12.65;;;7.50;;
12762;SDS011;6445;52.490;13.378;2023-02-28T07:28:36;12.43;;;7.35;;
12762;SDS011;6445;52.490;13.378;2023-02-28T07:31:04;14.55;;;7.00;;
12762;SDS011;6445;52.490;13.378;2023-02-28T07:33:30;11.75;;;6.63;;
12762;SDS011;6445;52.490;13.378;2023-02-28T07:36:03;10.85;;;6.65;;
12762;SDS011;6445;52.490;13.378;2023-02-28T07:38:30;10.55;;;7.00;;
12762;SDS011;6445;52.490;13.378;2023-02-28T07:40:55;12.23;;;7.22;;
12762;SDS011;6445;52.490;13.378;2023-02-28T07:43:20;11.68;;;7.00;;
12762;SDS011;6445;52.490;13.378;2023-02-28T07:45:45;9.25;;;6.10;;
12762;SDS011;6445;52.490;13.378;2023-02-28T07:48:11;7.72;;;5.18;;
12762;SDS011;6445;52.490;13.378;2023-02-28T07:50:36;7.25;;;4.30;;
12762;SDS011;6445;52.490;13.378;2023-02-28T07:53:02;7.75;;;4.60;;
12762;SDS011;6445;52.490;13.378;2023-02-28T07:55:27;12.35;;;4.90;;
12762;SDS011;6445;52.490;13.378;2023-02-28T07:57:52;12.45;;;5.43;;
12762;SDS011;6445;52.490;13.378;2023-02-28T08:00:17;8.57;;;5.20;;
12762;SDS011;6445;52.490;13.378;2023-02-28T08:02:43;9.07;;;4.28;;
12762;SDS011;6445;52.490;13.378;2023-02-28T08:05:08;6.22;;;3.90;;
12762;SDS011;6445;52.490;13.378;2023-02-28T08:07:33;6.55;;;3.88;;
12762;SDS011;6445;52.490;13.378;2023-02-28T08:09:59;6.95;;;4.40;;
12762;SDS011;6445;52.490;13.378;2023-02-28T08:12:24;6.03;;;3.70;;
12762;SDS011;6445;52.490;13.378;2023-02-28T08:14:49;9.88;;;3.58;;
12762;SDS011;6445;52.490;13.378;2023-02-28T08:17:15;8.48;;;3.90;;
12762;SDS011;6445;52.490;13.378;2023-02-28T08:19:40;6.20;;;3.08;;
12762;SDS011;6445;52.490;13.378;2023-02-28T08:22:05;6.95;;;3.65;;
12762;SDS011;6445;52.490;13.378;2023-02-28T08:24:30;6.45;;;3.58;;
12762;SDS011;6445;52.490;13.378;2023-02-28T08:26:56;5.10;;;3.03;;
12762;SDS011;6445;52.490;13.378;2023-02-28T08:29:21;5.05;;;3.22;;
12762;SDS011;6445;52.490;13.378;2023-02-28T08:31:46;5.57;;;2.83;;
12762;SDS011;6445;52.490;13.378;2023-02-28T08:34:12;3.03;;;2.40;;
12762;SDS011;6445;52.490;13.378;2023-02-28T08:36:39;5.88;;;2.92;;
12762;SDS011;6445;52.490;13.378;2023-02-28T08:39:05;4.80;;;2.58;;
12762;SDS011;6445;52.490;13.378;2023-02-28T08:41:31;3.88;;;2.92;;
12762;SDS011;6445;52.490;13.378;2023-02-28T08:43:56;4.55;;;2.25;;
12762;SDS011;6445;52.490;13.378;2023-02-28T08:46:22;4.15;;;2.50;;
12762;SDS011;6445;52.490;13.378;2023-02-28T08:48:51;4.85;;;2.90;;
12762;SDS011;6445;52.490;13.378;2023-02-28T08:51:17;4.63;;;2.30;;
12762;SDS011;6445;52.490;13.378;2023-02-28T08:53:46;3.60;;;2.50;;
12762;SDS011;6445;52.490;13.378;2023-02-28T08:56:14;4.63;;;2.58;;
12762;SDS011;6445;52.490;13.378;2023-02-28T08:58:41;4.93;;;2.20;;
12762;SDS011;6445;52.490;13.378;2023-02-28T09:01:08;3.90;;;2.22;;
12762;SDS011;6445;52.490;13.378;2023-02-28T09:03:41;3.63;;;2.47;;
12762;SDS011;6445;52.490;13.378;2023-02-28T09:06:07;3.65;;;2.30;;
12762;SDS011;6445;52.490;13.378;2023-02-28T09:08:34;3.67;;;2.65;;
12762;SDS011;6445;52.490;13.378;2023-02-28T09:10:59;3.42;;;2.22;;
12762;SDS011;6445;52.490;13.378;2023-02-28T09:13:26;6.15;;;2.90;;
12762;SDS011;6445;52.490;13.378;2023-02-28T09:15:51;6.10;;;2.30;;
12762;SDS011;6445;52.490;13.378;2023-02-28T09:18:17;3.05;;;2.00;;
12762;SDS011;6445;52.490;13.378;2023-02-28T09:20:43;3.90;;;2.13;;
12762;SDS011;6445;52.490;13.378;2023-02-28T09:23:09;4.28;;;2.55;;
12762;SDS011;6445;52.490;13.378;2023-02-28T09:25:36;6.20;;;2.22;;
12762;SDS011;6445;52.490;13.378;2023-02-28T09:28:03;3.47;;;2.40;;
12762;SDS011;6445;52.490;13.378;2023-02-28T09:30:28;2.70;;;2.00;;
12762;SDS011;6445;52.490;13.378;2023-02-28T09:32:54;8.27;;;3.78;;
12762;SDS011;6445;52.490;13.378;2023-02-28T09:35:20;13.45;;;3.78;;
12762;SDS011;6445;52.490;13.378;2023-02-28T09:37:46;7.55;;;2.83;;
12762;SDS011;6445;52.490;13.378;2023-02-28T09:40:12;5.07;;;2.72;;
12762;SDS011;6445;52.490;13.378;2023-02-28T09:42:39;7.90;;;2.80;;
12762;SDS011;6445;52.490;13.378;2023-02-28T09:45:19;8.70;;;2.90;;
12762;SDS011;6445;52.490;13.378;2023-02-28T09:47:49;4.10;;;2.53;;
12762;SDS011;6445;52.490;13.378;2023-02-28T09:52:51;2.78;;;2.22;;
12762;SDS011;6445;52.490;13.378;2023-02-28T09:55:20;4.07;;;2.55;;
12762;SDS011;6445;52.490;13.378;2023-02-28T09:57:53;5.85;;;2.80;;
12762;SDS011;6445;52.490;13.378;2023-02-28T10:00:27;5.20;;;2.35;;
12762;SDS011;6445;52.490;13.378;2023-02-28T10:05:51;8.27;;;2.67;;
12762;SDS011;6445;52.490;13.378;2023-02-28T10:08:19;3.35;;;2.05;;
12762;SDS011;6445;52.490;13.378;2023-02-28T10:10:55;5.63;;;2.17;;
12762;SDS011;6445;52.490;13.378;2023-02-28T10:16:24;5.03;;;2.58;;
12762;SDS011;6445;52.490;13.378;2023-02-28T10:21:29;3.95;;;2.13;;
12762;SDS011;6445;52.490;13.378;2023-02-28T10:24:03;6.50;;;2.88;;
12762;SDS011;6445;52.490;13.378;2023-02-28T10:26:39;7.88;;;2.50;;
12762;SDS011;6445;52.490;13.378;2023-02-28T10:29:09;4.38;;;2.35;;
12762;SDS011;6445;52.490;13.378;2023-02-28T10:31:35;5.93;;;2.53;;
12762;SDS011;6445;52.490;13.378;2023-02-28T10:34:00;5.88;;;2.45;;
12762;SDS011;6445;52.490;13.378;2023-02-28T10:36:26;3.17;;;2.20;;
12762;SDS011;6445;52.490;13.378;2023-02-28T10:38:53;4.10;;;2.22;;
12762;SDS011;6445;52.490;13.378;2023-02-28T10:44:12;9.15;;;2.80;;
12762;SDS011;6445;52.490;13.378;2023-02-28T10:46:39;6.13;;;2.55;;
12762;SDS011;6445;52.490;13.378;2023-02-28T10:49:06;3.08;;;2.10;;
12762;SDS011;6445;52.490;13.378;2023-02-28T10:51:55;3.88;;;2.10;;
12762;SDS011;6445;52.490;13.378;2023-02-28T10:54:27;3.92;;;1.95;;
12762;SDS011;6445;52.490;13.378;2023-02-28T10:57:11;4.88;;;2.70;;
12762;SDS011;6445;52.490;13.378;2023-02-28T10:59:42;3.75;;;1.92;;
12762;SDS011;6445;52.490;13.378;2023-02-28T11:04:57;4.13;;;2.20;;
12762;SDS011;6445;52.490;13.378;2023-02-28T11:07:23;3.35;;;2.50;;
12762;SDS011;6445;52.490;13.378;2023-02-28T11:09:51;4.15;;;2.42;;
12762;SDS011;6445;52.490;13.378;2023-02-28T11:12:37;3.63;;;2.40;;
12762;SDS011;6445;52.490;13.378;2023-02-28T11:15:04;8.80;;;3.05;;
12762;SDS011;6445;52.490;13.378;2023-02-28T11:17:31;3.78;;;2.67;;
12762;SDS011;6445;52.490;13.378;2023-02-28T11:20:02;6.53;;;2.50;;
12762;SDS011;6445;52.490;13.378;2023-02-28T11:22:32;3.92;;;2.47;;
12762;SDS011;6445;52.490;13.378;2023-02-28T11:25:06;6.88;;;2.60;;
12762;SDS011;6445;52.490;13.378;2023-02-28T11:27:43;5.40;;;2.67;;
12762;SDS011;6445;52.490;13.378;2023-02-28T11:30:24;4.90;;;2.72;;
12762;SDS011;6445;52.490;13.378;2023-02-28T11:32:56;6.18;;;2.45;;
12762;SDS011;6445;52.490;13.378;2023-02-28T11:35:26;6.47;;;3.20;;
12762;SDS011;6445;52.490;13.378;2023-02-28T11:37:55;3.70;;;2.97;;
12762;SDS011;6445;52.490;13.378;2023-02-28T11:40:24;4.38;;;2.65;;
12762;SDS011;6445;52.490;13.378;2023-02-28T11:43:11;4.35;;;2.83;;
12762;SDS011;6445;52.490;13.378;2023-02-28T11:45:55;3.75;;;2.50;;
12762;SDS011;6445;52.490;13.378;2023-02-28T11:51:27;4.80;;;3.03;;
12762;SDS011;6445;52.490;13.378;2023-02-28T11:54:01;4.70;;;3.25;;
12762;SDS011;6445;52.490;13.378;2023-02-28T11:59:02;6.18;;;2.80;;
12762;SDS011;6445;52.490;13.378;2023-02-28T12:04:25;4.60;;;3.35;;
12762;SDS011;6445;52.490;13.378;2023-02-28T12:07:08;7.43;;;3.30;;
12762;SDS011;6445;52.490;13.378;2023-02-28T12:15:18;8.90;;;3.33;;
12762;SDS011;6445;52.490;13.378;2023-02-28T12:17:55;8.18;;;3.42;;
12762;SDS011;6445;52.490;13.378;2023-02-28T12:21:00;4.20;;;3.30;;
12762;SDS011;6445;52.490;13.378;2023-02-28T12:26:42;5.38;;;3.58;;
12762;SDS011;6445;52.490;13.378;2023-02-28T12:29:12;5.25;;;3.45;;
12762;SDS011;6445;52.490;13.378;2023-02-28T12:31:45;5.32;;;3.22;;
12762;SDS011;6445;52.490;13.378;2023-02-28T12:34:19;6.35;;;3.10;;
12762;SDS011;6445;52.490;13.378;2023-02-28T12:36:48;5.70;;;3.22;;
12762;SDS011;6445;52.490;13.378;2023-02-28T12:39:19;4.47;;;3.17;;
12762;SDS011;6445;52.490;13.378;2023-02-28T12:41:49;4.85;;;3.30;;
12762;SDS011;6445;52.490;13.378;2023-02-28T12:44:40;6.32;;;3.20;;
12762;SDS011;6445;52.490;13.378;2023-02-28T12:47:10;6.95;;;3.53;;
12762;SDS011;6445;52.490;13.378;2023-02-28T12:52:14;5.55;;;3.33;;
12762;SDS011;6445;52.490;13.378;2023-02-28T12:54:52;5.07;;;3.00;;
12762;SDS011;6445;52.490;13.378;2023-02-28T12:57:28;4.38;;;3.05;;
12762;SDS011;6445;52.490;13.378;2023-02-28T12:59:57;6.93;;;3.35;;
12762;SDS011;6445;52.490;13.378;2023-02-28T13:02:33;6.10;;;3.83;;
12762;SDS011;6445;52.490;13.378;2023-02-28T13:08:53;7.70;;;3.55;;
12762;SDS011;6445;52.490;13.378;2023-02-28T13:11:33;15.45;;;7.70;;
12762;SDS011;6445;52.490;13.378;2023-02-28T13:14:05;6.50;;;3.50;;
12762;SDS011;6445;52.490;13.378;2023-02-28T13:16:56;4.57;;;2.92;;
12762;SDS011;6445;52.490;13.378;2023-02-28T13:19:23;4.82;;;2.92;;
12762;SDS011;6445;52.490;13.378;2023-02-28T13:21:50;5.70;;;3.58;;
12762;SDS011;6445;52.490;13.378;2023-02-28T13:29:40;4.57;;;3.10;;
12762;SDS011;6445;52.490;13.378;2023-02-28T13:34:35;8.30;;;3.10;;
12762;SDS011;6445;52.490;13.378;2023-02-28T13:42:22;7.80;;;3.53;;
12762;SDS011;6445;52.490;13.378;2023-02-28T13:45:19;5.07;;;3.47;;
12762;SDS011;6445;52.490;13.378;2023-02-28T13:48:02;5.88;;;3.25;;
12762;SDS011;6445;52.490;13.378;2023-02-28T13:55:57;5.93;;;3.20;;
12762;SDS011;6445;52.490;13.378;2023-02-28T13:58:53;5.57;;;3.25;;
12762;SDS011;6445;52.490;13.378;2023-02-28T14:01:34;4.88;;;3.13;;
12762;SDS011;6445;52.490;13.378;2023-02-28T14:07:02;5.22;;;3.22;;
12762;SDS011;6445;52.490;13.378;2023-02-28T14:09:36;7.05;;;3.95;;
12762;SDS011;6445;52.490;13.378;2023-02-28T14:15:25;6.80;;;3.67;;
12762;SDS011;6445;52.490;13.378;2023-02-28T14:17:55;9.20;;;3.95;;
12762;SDS011;6445;52.490;13.378;2023-02-28T14:20:22;6.63;;;2.90;;
12762;SDS011;6445;52.490;13.378;2023-02-28T14:22:54;7.65;;;3.08;;
12762;SDS011;6445;52.490;13.378;2023-02-28T14:25:33;4.53;;;3.03;;
12762;SDS011;6445;52.490;13.378;2023-02-28T14:31:07;4.65;;;3.30;;
12762;SDS011;6445;52.490;13.378;2023-02-28T14:36:23;5.43;;;3.30;;
12762;SDS011;6445;52.490;13.378;2023-02-28T14:38:55;4.57;;;2.85;;
12762;SDS011;6445;52.490;13.378;2023-02-28T14:41:23;6.13;;;3.42;;
12762;SDS011;6445;52.490;13.378;2023-02-28T14:43:57;7.50;;;3.88;;
12762;SDS011;6445;52.490;13.378;2023-02-28T14:46:45;6.13;;;3.30;;
12762;SDS011;6445;52.490;13.378;2023-02-28T14:49:18;5.35;;;2.60;;
12762;SDS011;6445;52.490;13.378;2023-02-28T14:52:23;6.00;;;3.42;;
12762;SDS011;6445;52.490;13.378;2023-02-28T14:54:52;7.13;;;3.25;;
12762;SDS011;6445;52.490;13.378;2023-02-28T14:57:29;7.60;;;3.33;;
12762;SDS011;6445;52.490;13.378;2023-02-28T15:00:13;5.90;;;3.13;;
12762;SDS011;6445;52.490;13.378;2023-02-28T15:03:17;10.05;;;3.67;;
12762;SDS011;6445;52.490;13.378;2023-02-28T15:05:52;5.10;;;3.67;;
12762;SDS011;6445;52.490;13.378;2023-02-28T15:08:22;4.95;;;3.50;;
12762;SDS011;6445;52.490;13.378;2023-02-28T15:13:25;7.13;;;3.40;;
12762;SDS011;6445;52.490;13.378;2023-02-28T15:15:59;5.75;;;3.45;;
12762;SDS011;6445;52.490;13.378;2023-02-28T15:18:42;7.50;;;3.80;;
12762;SDS011;6445;52.490;13.378;2023-02-28T15:21:18;6.68;;;3.78;;
12762;SDS011;6445;52.490;13.378;2023-02-28T15:24:00;7.10;;;3.65;;
12762;SDS011;6445;52.490;13.378;2023-02-28T15:26:30;6.30;;;3.65;;
12762;SDS011;6445;52.490;13.378;2023-02-28T15:29:00;5.95;;;3.60;;
12762;SDS011;6445;52.490;13.378;2023-02-28T15:31:31;5.55;;;3.60;;
12762;SDS011;6445;52.490;13.378;2023-02-28T15:34:03;5.28;;;3.10;;
12762;SDS011;6445;52.490;13.378;2023-02-28T15:36:30;6.28;;;3.33;;
12762;SDS011;6445;52.490;13.378;2023-02-28T15:38:58;8.70;;;3.53;;
12762;SDS011;6445;52.490;13.378;2023-02-28T15:41:29;5.35;;;3.17;;
12762;SDS011;6445;52.490;13.378;2023-02-28T15:44:15;7.60;;;3.95;;
12762;SDS011;6445;52.490;13.378;2023-02-28T15:47:01;5.25;;;3.58;;
12762;SDS011;6445;52.490;13.378;2023-02-28T15:49:29;5.68;;;3.88;;
12762;SDS011;6445;52.490;13.378;2023-02-28T15:52:11;6.30;;;3.70;;
12762;SDS011;6445;52.490;13.378;2023-02-28T15:54:40;8.52;;;4.85;;
12762;SDS011;6445;52.490;13.378;2023-02-28T15:57:07;5.47;;;4.00;;
12762;SDS011;6445;52.490;13.378;2023-02-28T15:59:42;5.72;;;3.72;;
12762;SDS011;6445;52.490;13.378;2023-02-28T16:02:18;6.47;;;4.13;;
12762;SDS011;6445;52.490;13.378;2023-02-28T16:04:56;7.80;;;3.90;;
12762;SDS011;6445;52.490;13.378;2023-02-28T16:07:38;11.82;;;4.22;;
12762;SDS011;6445;52.490;13.378;2023-02-28T16:10:05;11.73;;;4.90;;
12762;SDS011;6445;52.490;13.378;2023-02-28T16:12:32;9.20;;;4.38;;
12762;SDS011;6445;52.490;13.378;2023-02-28T16:15:06;6.22;;;4.13;;
12762;SDS011;6445;52.490;13.378;2023-02-28T16:17:35;8.70;;;4.05;;
12762;SDS011;6445;52.490;13.378;2023-02-28T16:20:13;6.35;;;3.92;;
12762;SDS011;6445;52.490;13.378;2023-02-28T16:22:45;7.90;;;3.90;;
12762;SDS011;6445;52.490;13.378;2023-02-28T16:25:14;7.07;;;4.78;;
12762;SDS011;6445;52.490;13.378;2023-02-28T16:27:41;10.63;;;4.20;;
12762;SDS011;6445;52.490;13.378;2023-02-28T16:30:14;9.40;;;4.93;;
12762;SDS011;6445;52.490;13.378;2023-02-28T16:32:47;15.35;;;7.60;;
12762;SDS011;6445;52.490;13.378;2023-02-28T16:35:14;12.02;;;7.20;;
12762;SDS011;6445;52.490;13.378;2023-02-28T16:37:40;11.63;;;6.45;;